Decoded Metar for YWGT (WANGARATTA ARP in _UNIDENTIFIED) (IATA:WGT) | Meteo·Mobile Aviation Weather
aviador You're here:

YWGT Decoded Metar

WANGARATTA ARP in _UNIDENTIFIED
Report Time2019-01-18 13:00:00
UTC Time2019-01-18 13:20:36
Flight Rules vfr VFR
Wind250° at 06 kt
W.Decomp.*RWY 27: 5.1 kt HW 3.1 kt LCW
RWY 18: 3.1 kt HW 5.1 kt RCW
W.Rank250° ranks 10
Current wind is below 250° avg. (7.6)
Visibility9999 m
Phenomena:N/A
Clouds:Scattered 070 Hf
Expected CloudBase > 6,000 ft AGL from Temp-Dew spread
CeilingNone
Temp28°C (ISA +14)
Dew Point13°C (40% RH)
Heat Index27.7°C
AAT26.8°C
QNH1011 hPa
Density Alt2,382 ft
Elevation502 ft
Report Wrong Elevation
Raw Report
YWGT 181300Z AUTO 25006KT 9999 // SCT070 28/13 Q1011=

Extra information for YWGT:More info

Metar Taf Metar & Taf Last 4 Metars F.Rules Stats Wind Profile Meteogram Temp Stats Airport Information Weather charts Add Link Nearby VenuesMetar ALERT Operation Metar Decoded Social comments